sensor_id;sensor_type;location;lat;lon;timestamp;P1;durP1;ratioP1;P2;durP2;ratioP2
22449;SDS011;11392;57.390;-2.468;2022-10-15T00:00:46;4.20;;;1.98;;
22449;SDS011;11392;57.390;-2.468;2022-10-15T00:03:13;2.45;;;1.60;;
22449;SDS011;11392;57.390;-2.468;2022-10-15T00:05:41;3.60;;;1.95;;
22449;SDS011;11392;57.390;-2.468;2022-10-15T00:08:09;5.30;;;1.75;;
22449;SDS011;11392;57.390;-2.468;2022-10-15T00:10:37;3.80;;;1.83;;
22449;SDS011;11392;57.390;-2.468;2022-10-15T00:13:04;3.28;;;1.95;;
22449;SDS011;11392;57.390;-2.468;2022-10-15T00:15:31;1.90;;;1.70;;
22449;SDS011;11392;57.390;-2.468;2022-10-15T00:18:01;3.25;;;2.08;;
22449;SDS011;11392;57.390;-2.468;2022-10-15T00:20:28;2.42;;;2.00;;
22449;SDS011;11392;57.390;-2.468;2022-10-15T00:22:55;1.83;;;1.50;;
22449;SDS011;11392;57.390;-2.468;2022-10-15T00:25:22;2.65;;;1.40;;
22449;SDS011;11392;57.390;-2.468;2022-10-15T00:27:49;1.77;;;1.30;;
22449;SDS011;11392;57.390;-2.468;2022-10-15T00:30:16;1.85;;;1.65;;
22449;SDS011;11392;57.390;-2.468;2022-10-15T00:32:43;3.33;;;1.55;;
22449;SDS011;11392;57.390;-2.468;2022-10-15T00:35:10;4.18;;;1.70;;
22449;SDS011;11392;57.390;-2.468;2022-10-15T00:37:37;4.25;;;1.87;;
22449;SDS011;11392;57.390;-2.468;2022-10-15T00:40:04;1.83;;;1.42;;
22449;SDS011;11392;57.390;-2.468;2022-10-15T00:42:31;3.12;;;1.40;;
22449;SDS011;11392;57.390;-2.468;2022-10-15T00:44:58;2.12;;;1.60;;
22449;SDS011;11392;57.390;-2.468;2022-10-15T00:47:27;4.40;;;2.42;;
22449;SDS011;11392;57.390;-2.468;2022-10-15T00:49:57;4.00;;;2.00;;
22449;SDS011;11392;57.390;-2.468;2022-10-15T00:52:32;4.65;;;2.40;;
22449;SDS011;11392;57.390;-2.468;2022-10-15T00:55:08;3.67;;;1.50;;
22449;SDS011;11392;57.390;-2.468;2022-10-15T00:57:36;2.95;;;2.28;;
22449;SDS011;11392;57.390;-2.468;2022-10-15T01:00:09;3.12;;;1.92;;
22449;SDS011;11392;57.390;-2.468;2022-10-15T01:02:40;5.43;;;1.40;;
22449;SDS011;11392;57.390;-2.468;2022-10-15T01:05:08;2.10;;;1.40;;
22449;SDS011;11392;57.390;-2.468;2022-10-15T01:07:36;3.40;;;1.45;;
22449;SDS011;11392;57.390;-2.468;2022-10-15T01:10:04;3.03;;;1.20;;
22449;SDS011;11392;57.390;-2.468;2022-10-15T01:12:38;3.30;;;1.30;;
22449;SDS011;11392;57.390;-2.468;2022-10-15T01:15:14;2.55;;;1.50;;
22449;SDS011;11392;57.390;-2.468;2022-10-15T01:21:15;2.97;;;1.90;;
22449;SDS011;11392;57.390;-2.468;2022-10-15T01:24:05;2.50;;;1.77;;
22449;SDS011;11392;57.390;-2.468;2022-10-15T01:29:55;2.35;;;2.10;;
22449;SDS011;11392;57.390;-2.468;2022-10-15T01:35:47;4.30;;;1.60;;
22449;SDS011;11392;57.390;-2.468;2022-10-15T01:41:09;3.15;;;2.08;;
22449;SDS011;11392;57.390;-2.468;2022-10-15T01:43:45;2.87;;;2.03;;
22449;SDS011;11392;57.390;-2.468;2022-10-15T01:46:22;2.17;;;1.73;;
22449;SDS011;11392;57.390;-2.468;2022-10-15T01:48:53;2.87;;;1.70;;
22449;SDS011;11392;57.390;-2.468;2022-10-15T01:51:23;3.45;;;1.90;;
22449;SDS011;11392;57.390;-2.468;2022-10-15T01:53:51;2.55;;;1.58;;
22449;SDS011;11392;57.390;-2.468;2022-10-15T01:56:20;1.40;;;1.10;;
22449;SDS011;11392;57.390;-2.468;2022-10-15T01:58:49;5.32;;;1.67;;
22449;SDS011;11392;57.390;-2.468;2022-10-15T02:01:19;2.72;;;1.45;;
22449;SDS011;11392;57.390;-2.468;2022-10-15T02:03:48;1.85;;;1.67;;
22449;SDS011;11392;57.390;-2.468;2022-10-15T02:06:21;2.67;;;1.70;;
22449;SDS011;11392;57.390;-2.468;2022-10-15T02:15:16;1.58;;;1.20;;
22449;SDS011;11392;57.390;-2.468;2022-10-15T02:26:04;3.00;;;1.25;;
22449;SDS011;11392;57.390;-2.468;2022-10-15T02:28:35;5.40;;;1.30;;
22449;SDS011;11392;57.390;-2.468;2022-10-15T02:31:04;4.15;;;1.40;;
22449;SDS011;11392;57.390;-2.468;2022-10-15T02:33:33;3.92;;;1.23;;
22449;SDS011;11392;57.390;-2.468;2022-10-15T02:36:03;3.75;;;1.25;;
22449;SDS011;11392;57.390;-2.468;2022-10-15T02:38:30;4.65;;;1.80;;
22449;SDS011;11392;57.390;-2.468;2022-10-15T02:40:59;3.80;;;1.50;;
22449;SDS011;11392;57.390;-2.468;2022-10-15T02:43:27;4.68;;;1.42;;
22449;SDS011;11392;57.390;-2.468;2022-10-15T02:45:54;4.15;;;1.40;;
22449;SDS011;11392;57.390;-2.468;2022-10-15T02:48:21;5.93;;;1.55;;
22449;SDS011;11392;57.390;-2.468;2022-10-15T02:50:48;5.65;;;1.65;;
22449;SDS011;11392;57.390;-2.468;2022-10-15T02:53:14;4.80;;;1.50;;
22449;SDS011;11392;57.390;-2.468;2022-10-15T02:55:41;5.05;;;1.62;;
22449;SDS011;11392;57.390;-2.468;2022-10-15T02:58:08;2.25;;;1.20;;
22449;SDS011;11392;57.390;-2.468;2022-10-15T03:00:35;3.42;;;1.48;;
22449;SDS011;11392;57.390;-2.468;2022-10-15T03:03:02;4.15;;;1.40;;
22449;SDS011;11392;57.390;-2.468;2022-10-15T03:05:30;4.20;;;1.20;;
22449;SDS011;11392;57.390;-2.468;2022-10-15T03:07:58;8.35;;;1.70;;
22449;SDS011;11392;57.390;-2.468;2022-10-15T03:10:25;4.50;;;1.27;;
22449;SDS011;11392;57.390;-2.468;2022-10-15T03:12:52;4.50;;;1.20;;
22449;SDS011;11392;57.390;-2.468;2022-10-15T03:15:19;6.30;;;2.03;;
22449;SDS011;11392;57.390;-2.468;2022-10-15T03:17:46;6.28;;;1.50;;
22449;SDS011;11392;57.390;-2.468;2022-10-15T03:20:12;5.37;;;1.17;;
22449;SDS011;11392;57.390;-2.468;2022-10-15T03:22:39;2.95;;;1.33;;
22449;SDS011;11392;57.390;-2.468;2022-10-15T03:25:06;6.00;;;1.67;;
22449;SDS011;11392;57.390;-2.468;2022-10-15T03:27:33;4.97;;;1.30;;
22449;SDS011;11392;57.390;-2.468;2022-10-15T03:30:00;5.47;;;1.12;;
22449;SDS011;11392;57.390;-2.468;2022-10-15T03:32:27;4.15;;;1.50;;
22449;SDS011;11392;57.390;-2.468;2022-10-15T03:35:00;7.12;;;1.10;;
22449;SDS011;11392;57.390;-2.468;2022-10-15T03:37:27;5.68;;;1.45;;
22449;SDS011;11392;57.390;-2.468;2022-10-15T03:39:54;3.55;;;1.00;;
22449;SDS011;11392;57.390;-2.468;2022-10-15T03:42:21;5.93;;;1.70;;
22449;SDS011;11392;57.390;-2.468;2022-10-15T03:44:49;3.12;;;1.37;;
22449;SDS011;11392;57.390;-2.468;2022-10-15T03:47:16;3.97;;;1.00;;
22449;SDS011;11392;57.390;-2.468;2022-10-15T03:49:42;3.97;;;1.50;;
22449;SDS011;11392;57.390;-2.468;2022-10-15T03:52:09;3.50;;;1.55;;
22449;SDS011;11392;57.390;-2.468;2022-10-15T03:54:36;5.68;;;1.25;;
22449;SDS011;11392;57.390;-2.468;2022-10-15T03:57:03;4.05;;;1.20;;
22449;SDS011;11392;57.390;-2.468;2022-10-15T03:59:30;4.50;;;1.35;;
22449;SDS011;11392;57.390;-2.468;2022-10-15T04:01:57;5.87;;;1.55;;
22449;SDS011;11392;57.390;-2.468;2022-10-15T04:04:24;3.25;;;1.60;;
22449;SDS011;11392;57.390;-2.468;2022-10-15T04:06:51;2.65;;;1.70;;
22449;SDS011;11392;57.390;-2.468;2022-10-15T04:09:18;6.25;;;1.80;;
22449;SDS011;11392;57.390;-2.468;2022-10-15T04:11:45;3.87;;;1.60;;
22449;SDS011;11392;57.390;-2.468;2022-10-15T04:14:12;3.00;;;1.52;;
22449;SDS011;11392;57.390;-2.468;2022-10-15T04:16:39;3.28;;;1.30;;
22449;SDS011;11392;57.390;-2.468;2022-10-15T04:19:06;5.10;;;1.40;;
22449;SDS011;11392;57.390;-2.468;2022-10-15T04:21:36;4.87;;;1.50;;
22449;SDS011;11392;57.390;-2.468;2022-10-15T04:24:03;1.65;;;1.37;;
22449;SDS011;11392;57.390;-2.468;2022-10-15T04:26:30;5.97;;;1.65;;
22449;SDS011;11392;57.390;-2.468;2022-10-15T04:28:57;2.67;;;1.40;;
22449;SDS011;11392;57.390;-2.468;2022-10-15T04:31:24;6.60;;;1.60;;
22449;SDS011;11392;57.390;-2.468;2022-10-15T04:33:51;3.62;;;1.25;;
22449;SDS011;11392;57.390;-2.468;2022-10-15T04:36:18;4.28;;;1.40;;
22449;SDS011;11392;57.390;-2.468;2022-10-15T04:38:45;3.75;;;1.95;;
22449;SDS011;11392;57.390;-2.468;2022-10-15T04:41:12;3.55;;;1.30;;
22449;SDS011;11392;57.390;-2.468;2022-10-15T04:43:39;2.70;;;1.30;;
22449;SDS011;11392;57.390;-2.468;2022-10-15T04:46:06;3.75;;;1.35;;
22449;SDS011;11392;57.390;-2.468;2022-10-15T04:48:35;4.10;;;1.73;;
22449;SDS011;11392;57.390;-2.468;2022-10-15T04:51:12;4.50;;;1.48;;
22449;SDS011;11392;57.390;-2.468;2022-10-15T04:53:41;3.70;;;1.65;;
22449;SDS011;11392;57.390;-2.468;2022-10-15T04:56:15;3.30;;;1.37;;
22449;SDS011;11392;57.390;-2.468;2022-10-15T04:58:45;4.30;;;1.48;;
22449;SDS011;11392;57.390;-2.468;2022-10-15T05:01:13;4.87;;;1.17;;
22449;SDS011;11392;57.390;-2.468;2022-10-15T05:03:43;4.55;;;1.30;;
22449;SDS011;11392;57.390;-2.468;2022-10-15T05:06:12;4.62;;;1.20;;
22449;SDS011;11392;57.390;-2.468;2022-10-15T05:08:41;5.40;;;1.25;;
22449;SDS011;11392;57.390;-2.468;2022-10-15T05:11:18;3.78;;;1.40;;
22449;SDS011;11392;57.390;-2.468;2022-10-15T05:13:47;2.90;;;1.20;;
22449;SDS011;11392;57.390;-2.468;2022-10-15T05:18:43;3.78;;;1.40;;
22449;SDS011;11392;57.390;-2.468;2022-10-15T05:21:12;4.72;;;1.50;;
22449;SDS011;11392;57.390;-2.468;2022-10-15T05:23:39;4.95;;;1.70;;
22449;SDS011;11392;57.390;-2.468;2022-10-15T05:26:08;5.15;;;1.58;;
22449;SDS011;11392;57.390;-2.468;2022-10-15T05:28:37;2.92;;;1.27;;
22449;SDS011;11392;57.390;-2.468;2022-10-15T05:31:11;5.25;;;1.40;;
22449;SDS011;11392;57.390;-2.468;2022-10-15T05:33:44;4.55;;;1.12;;
22449;SDS011;11392;57.390;-2.468;2022-10-15T05:36:13;4.18;;;1.17;;
22449;SDS011;11392;57.390;-2.468;2022-10-15T05:38:48;6.22;;;0.95;;
22449;SDS011;11392;57.390;-2.468;2022-10-15T05:41:17;3.62;;;0.95;;
22449;SDS011;11392;57.390;-2.468;2022-10-15T05:43:48;5.30;;;1.15;;
22449;SDS011;11392;57.390;-2.468;2022-10-15T05:46:16;4.90;;;1.27;;
22449;SDS011;11392;57.390;-2.468;2022-10-15T05:48:51;2.58;;;1.50;;
22449;SDS011;11392;57.390;-2.468;2022-10-15T05:51:19;2.97;;;0.95;;
22449;SDS011;11392;57.390;-2.468;2022-10-15T05:53:46;5.12;;;0.95;;
22449;SDS011;11392;57.390;-2.468;2022-10-15T05:56:13;5.60;;;1.30;;
22449;SDS011;11392;57.390;-2.468;2022-10-15T05:58:40;2.58;;;1.10;;
22449;SDS011;11392;57.390;-2.468;2022-10-15T06:01:08;5.03;;;1.10;;
22449;SDS011;11392;57.390;-2.468;2022-10-15T06:03:36;4.00;;;1.02;;
22449;SDS011;11392;57.390;-2.468;2022-10-15T06:06:11;5.93;;;1.42;;
22449;SDS011;11392;57.390;-2.468;2022-10-15T06:08:48;2.55;;;0.82;;
22449;SDS011;11392;57.390;-2.468;2022-10-15T06:11:16;9.70;;;1.90;;
22449;SDS011;11392;57.390;-2.468;2022-10-15T06:13:43;10.82;;;1.25;;
22449;SDS011;11392;57.390;-2.468;2022-10-15T06:16:12;4.25;;;0.98;;
22449;SDS011;11392;57.390;-2.468;2022-10-15T06:18:44;4.05;;;1.05;;
22449;SDS011;11392;57.390;-2.468;2022-10-15T06:21:11;4.90;;;1.62;;
22449;SDS011;11392;57.390;-2.468;2022-10-15T06:23:38;2.70;;;1.08;;
22449;SDS011;11392;57.390;-2.468;2022-10-15T06:26:06;6.00;;;1.00;;
22449;SDS011;11392;57.390;-2.468;2022-10-15T06:28:35;6.30;;;1.60;;
22449;SDS011;11392;57.390;-2.468;2022-10-15T06:31:02;5.93;;;2.08;;
22449;SDS011;11392;57.390;-2.468;2022-10-15T06:33:30;6.22;;;1.65;;
22449;SDS011;11392;57.390;-2.468;2022-10-15T06:36:05;3.58;;;1.10;;
22449;SDS011;11392;57.390;-2.468;2022-10-15T06:38:34;3.90;;;1.20;;
22449;SDS011;11392;57.390;-2.468;2022-10-15T06:41:05;4.57;;;1.08;;
22449;SDS011;11392;57.390;-2.468;2022-10-15T06:43:33;7.12;;;1.87;;
22449;SDS011;11392;57.390;-2.468;2022-10-15T06:46:01;3.03;;;1.10;;
22449;SDS011;11392;57.390;-2.468;2022-10-15T06:48:29;7.45;;;1.12;;
22449;SDS011;11392;57.390;-2.468;2022-10-15T06:50:57;3.45;;;1.30;;
22449;SDS011;11392;57.390;-2.468;2022-10-15T06:53:26;2.47;;;1.48;;
22449;SDS011;11392;57.390;-2.468;2022-10-15T06:55:58;3.65;;;1.30;;
22449;SDS011;11392;57.390;-2.468;2022-10-15T06:58:26;7.50;;;1.90;;
22449;SDS011;11392;57.390;-2.468;2022-10-15T07:01:00;6.47;;;1.15;;
22449;SDS011;11392;57.390;-2.468;2022-10-15T07:03:28;4.57;;;1.12;;
22449;SDS011;11392;57.390;-2.468;2022-10-15T07:05:59;4.25;;;1.48;;
22449;SDS011;11392;57.390;-2.468;2022-10-15T07:08:32;5.65;;;1.40;;
22449;SDS011;11392;57.390;-2.468;2022-10-15T07:11:02;4.40;;;1.17;;
22449;SDS011;11392;57.390;-2.468;2022-10-15T07:13:30;9.80;;;1.70;;
22449;SDS011;11392;57.390;-2.468;2022-10-15T07:15:58;2.67;;;1.40;;
22449;SDS011;11392;57.390;-2.468;2022-10-15T07:18:30;3.28;;;1.33;;
22449;SDS011;11392;57.390;-2.468;2022-10-15T07:20:58;5.28;;;1.30;;
22449;SDS011;11392;57.390;-2.468;2022-10-15T07:23:25;5.62;;;1.70;;
22449;SDS011;11392;57.390;-2.468;2022-10-15T07:25:53;4.28;;;1.37;;
22449;SDS011;11392;57.390;-2.468;2022-10-15T07:28:22;3.87;;;1.50;;
22449;SDS011;11392;57.390;-2.468;2022-10-15T07:30:49;7.43;;;2.33;;
22449;SDS011;11392;57.390;-2.468;2022-10-15T07:33:16;5.28;;;1.83;;
22449;SDS011;11392;57.390;-2.468;2022-10-15T07:35:43;5.25;;;2.62;;
22449;SDS011;11392;57.390;-2.468;2022-10-15T07:38:10;7.87;;;2.53;;
22449;SDS011;11392;57.390;-2.468;2022-10-15T07:40:37;5.65;;;2.40;;
22449;SDS011;11392;57.390;-2.468;2022-10-15T07:43:04;9.35;;;2.40;;
22449;SDS011;11392;57.390;-2.468;2022-10-15T07:45:31;10.70;;;2.72;;
22449;SDS011;11392;57.390;-2.468;2022-10-15T07:47:58;8.65;;;2.55;;
22449;SDS011;11392;57.390;-2.468;2022-10-15T07:50:25;6.47;;;2.33;;
22449;SDS011;11392;57.390;-2.468;2022-10-15T07:52:57;6.05;;;2.25;;
22449;SDS011;11392;57.390;-2.468;2022-10-15T07:55:24;8.30;;;2.10;;
22449;SDS011;11392;57.390;-2.468;2022-10-15T07:57:51;6.43;;;1.90;;
22449;SDS011;11392;57.390;-2.468;2022-10-15T08:00:22;7.90;;;2.47;;
22449;SDS011;11392;57.390;-2.468;2022-10-15T08:02:50;7.07;;;2.22;;
22449;SDS011;11392;57.390;-2.468;2022-10-15T08:05:17;7.32;;;2.42;;
22449;SDS011;11392;57.390;-2.468;2022-10-15T08:07:44;6.95;;;2.35;;
22449;SDS011;11392;57.390;-2.468;2022-10-15T08:10:11;5.75;;;2.50;;
22449;SDS011;11392;57.390;-2.468;2022-10-15T08:12:39;15.15;;;3.47;;
22449;SDS011;11392;57.390;-2.468;2022-10-15T08:15:06;8.07;;;2.47;;
22449;SDS011;11392;57.390;-2.468;2022-10-15T08:17:33;11.93;;;2.85;;
22449;SDS011;11392;57.390;-2.468;2022-10-15T08:20:00;8.00;;;3.20;;
22449;SDS011;11392;57.390;-2.468;2022-10-15T08:22:27;6.70;;;2.65;;
22449;SDS011;11392;57.390;-2.468;2022-10-15T08:24:54;8.13;;;2.30;;
22449;SDS011;11392;57.390;-2.468;2022-10-15T08:27:21;6.12;;;2.75;;
22449;SDS011;11392;57.390;-2.468;2022-10-15T08:29:48;8.02;;;2.95;;
22449;SDS011;11392;57.390;-2.468;2022-10-15T08:32:15;11.73;;;2.80;;
22449;SDS011;11392;57.390;-2.468;2022-10-15T08:34:42;8.65;;;3.30;;
22449;SDS011;11392;57.390;-2.468;2022-10-15T08:37:09;8.25;;;2.55;;
22449;SDS011;11392;57.390;-2.468;2022-10-15T08:39:36;5.25;;;2.30;;
22449;SDS011;11392;57.390;-2.468;2022-10-15T08:42:11;5.72;;;2.47;;
22449;SDS011;11392;57.390;-2.468;2022-10-15T08:44:45;6.53;;;2.53;;
22449;SDS011;11392;57.390;-2.468;2022-10-15T08:50:22;7.32;;;2.90;;
22449;SDS011;11392;57.390;-2.468;2022-10-15T08:53:05;6.43;;;2.15;;
22449;SDS011;11392;57.390;-2.468;2022-10-15T08:55:37;9.15;;;2.78;;
22449;SDS011;11392;57.390;-2.468;2022-10-15T08:58:26;8.50;;;3.47;;
22449;SDS011;11392;57.390;-2.468;2022-10-15T09:01:17;7.15;;;2.70;;
22449;SDS011;11392;57.390;-2.468;2022-10-15T09:03:55;5.37;;;2.20;;
22449;SDS011;11392;57.390;-2.468;2022-10-15T09:06:35;5.65;;;2.55;;
22449;SDS011;11392;57.390;-2.468;2022-10-15T09:15:04;5.45;;;3.08;;
22449;SDS011;11392;57.390;-2.468;2022-10-15T09:17:41;6.35;;;3.45;;
22449;SDS011;11392;57.390;-2.468;2022-10-15T09:20:19;5.47;;;2.90;;
22449;SDS011;11392;57.390;-2.468;2022-10-15T09:22:58;3.60;;;2.90;;
22449;SDS011;11392;57.390;-2.468;2022-10-15T09:25:26;5.40;;;2.92;;
22449;SDS011;11392;57.390;-2.468;2022-10-15T09:28:01;5.05;;;2.80;;
22449;SDS011;11392;57.390;-2.468;2022-10-15T09:30:37;3.22;;;2.50;;
22449;SDS011;11392;57.390;-2.468;2022-10-15T09:42:10;1.27;;;1.17;;
22449;SDS011;11392;57.390;-2.468;2022-10-15T09:45:02;4.00;;;1.20;;
22449;SDS011;11392;57.390;-2.468;2022-10-15T09:47:33;2.25;;;1.00;;
22449;SDS011;11392;57.390;-2.468;2022-10-15T09:50:02;2.42;;;0.98;;
22449;SDS011;11392;57.390;-2.468;2022-10-15T09:52:45;1.77;;;0.90;;
22449;SDS011;11392;57.390;-2.468;2022-10-15T09:55:38;1.50;;;0.80;;
22449;SDS011;11392;57.390;-2.468;2022-10-15T09:58:20;1.30;;;0.80;;
22449;SDS011;11392;57.390;-2.468;2022-10-15T10:00:55;0.80;;;0.80;;
22449;SDS011;11392;57.390;-2.468;2022-10-15T10:03:23;1.70;;;0.77;;
22449;SDS011;11392;57.390;-2.468;2022-10-15T10:06:02;0.88;;;0.60;;
22449;SDS011;11392;57.390;-2.468;2022-10-15T10:08:54;0.57;;;0.57;;
22449;SDS011;11392;57.390;-2.468;2022-10-15T10:11:23;0.93;;;0.85;;
22449;SDS011;11392;57.390;-2.468;2022-10-15T10:13:56;0.93;;;0.75;;
22449;SDS011;11392;57.390;-2.468;2022-10-15T10:16:25;0.80;;;0.80;;
22449;SDS011;11392;57.390;-2.468;2022-10-15T10:21:50;0.52;;;0.52;;
22449;SDS011;11392;57.390;-2.468;2022-10-15T10:24:45;1.67;;;0.73;;
22449;SDS011;11392;57.390;-2.468;2022-10-15T10:27:20;0.52;;;0.52;;
22449;SDS011;11392;57.390;-2.468;2022-10-15T10:29:59;1.15;;;1.08;;
22449;SDS011;11392;57.390;-2.468;2022-10-15T10:32:31;0.50;;;0.50;;
22449;SDS011;11392;57.390;-2.468;2022-10-15T10:35:00;0.50;;;0.50;;
22449;SDS011;11392;57.390;-2.468;2022-10-15T10:37:39;0.45;;;0.40;;
22449;SDS011;11392;57.390;-2.468;2022-10-15T10:43:14;0.13;;;0.10;;
22449;SDS011;11392;57.390;-2.468;2022-10-15T10:48:46;0.10;;;0.10;;
22449;SDS011;11392;57.390;-2.468;2022-10-15T10:51:24;0.20;;;0.10;;
22449;SDS011;11392;57.390;-2.468;2022-10-15T10:53:54;0.50;;;0.10;;
22449;SDS011;11392;57.390;-2.468;2022-10-15T10:56:23;0.10;;;0.10;;
22449;SDS011;11392;57.390;-2.468;2022-10-15T10:59:01;0.13;;;0.13;;
22449;SDS011;11392;57.390;-2.468;2022-10-15T11:01:35;0.10;;;0.10;;
22449;SDS011;11392;57.390;-2.468;2022-10-15T11:04:02;0.10;;;0.10;;
22449;SDS011;11392;57.390;-2.468;2022-10-15T11:18:00;0.10;;;0.10;;
22449;SDS011;11392;57.390;-2.468;2022-10-15T11:54:41;0.10;;;0.10;;
22449;SDS011;11392;57.390;-2.468;2022-10-15T11:57:28;0.00;;;0.00;;
22449;SDS011;11392;57.390;-2.468;2022-10-15T12:00:00;0.30;;;0.10;;
22449;SDS011;11392;57.390;-2.468;2022-10-15T12:02:39;0.10;;;0.00;;
22449;SDS011;11392;57.390;-2.468;2022-10-15T12:05:20;1.15;;;0.00;;
22449;SDS011;11392;57.390;-2.468;2022-10-15T12:08:05;0.17;;;0.10;;
22449;SDS011;11392;57.390;-2.468;2022-10-15T12:10:56;0.20;;;0.20;;
22449;SDS011;11392;57.390;-2.468;2022-10-15T12:13:49;0.47;;;0.30;;
22449;SDS011;11392;57.390;-2.468;2022-10-15T12:16:25;0.28;;;0.28;;
22449;SDS011;11392;57.390;-2.468;2022-10-15T12:21:59;0.47;;;0.13;;
22449;SDS011;11392;57.390;-2.468;2022-10-15T12:29:48;0.82;;;0.20;;
22449;SDS011;11392;57.390;-2.468;2022-10-15T12:32:24;0.68;;;0.13;;
22449;SDS011;11392;57.390;-2.468;2022-10-15T12:34:54;0.20;;;0.20;;
22449;SDS011;11392;57.390;-2.468;2022-10-15T12:37:22;0.57;;;0.30;;
22449;SDS011;11392;57.390;-2.468;2022-10-15T12:40:00;1.30;;;0.10;;
22449;SDS011;11392;57.390;-2.468;2022-10-15T12:42:33;0.20;;;0.10;;
22449;SDS011;11392;57.390;-2.468;2022-10-15T12:45:04;0.30;;;0.20;;
22449;SDS011;11392;57.390;-2.468;2022-10-15T12:50:18;0.15;;;0.10;;
22449;SDS011;11392;57.390;-2.468;2022-10-15T12:53:00;2.08;;;0.32;;
22449;SDS011;11392;57.390;-2.468;2022-10-15T12:55:34;0.45;;;0.20;;
22449;SDS011;11392;57.390;-2.468;2022-10-15T13:01:03;0.30;;;0.20;;
22449;SDS011;11392;57.390;-2.468;2022-10-15T13:03:35;0.85;;;0.13;;
22449;SDS011;11392;57.390;-2.468;2022-10-15T13:08:42;0.10;;;0.10;;
22449;SDS011;11392;57.390;-2.468;2022-10-15T13:11:17;0.43;;;0.30;;
22449;SDS011;11392;57.390;-2.468;2022-10-15T13:16:44;0.20;;;0.10;;
22449;SDS011;11392;57.390;-2.468;2022-10-15T13:19:16;0.60;;;0.20;;
22449;SDS011;11392;57.390;-2.468;2022-10-15T13:21:50;0.57;;;0.10;;
22449;SDS011;11392;57.390;-2.468;2022-10-15T13:24:29;0.80;;;0.10;;
22449;SDS011;11392;57.390;-2.468;2022-10-15T13:27:11;0.25;;;0.08;;
22449;SDS011;11392;57.390;-2.468;2022-10-15T13:29:51;0.28;;;0.28;;
22449;SDS011;11392;57.390;-2.468;2022-10-15T13:32:23;0.85;;;0.17;;
22449;SDS011;11392;57.390;-2.468;2022-10-15T13:34:53;0.25;;;0.03;;
22449;SDS011;11392;57.390;-2.468;2022-10-15T13:37:30;0.00;;;0.00;;
22449;SDS011;11392;57.390;-2.468;2022-10-15T13:40:00;0.20;;;0.10;;
22449;SDS011;11392;57.390;-2.468;2022-10-15T13:42:33;0.20;;;0.10;;
22449;SDS011;11392;57.390;-2.468;2022-10-15T13:45:02;0.55;;;0.20;;
22449;SDS011;11392;57.390;-2.468;2022-10-15T13:47:46;0.20;;;0.10;;
22449;SDS011;11392;57.390;-2.468;2022-10-15T13:52:56;0.10;;;0.10;;
22449;SDS011;11392;57.390;-2.468;2022-10-15T13:55:38;0.32;;;0.10;;
22449;SDS011;11392;57.390;-2.468;2022-10-15T14:03:35;0.80;;;0.20;;
22449;SDS011;11392;57.390;-2.468;2022-10-15T14:08:47;0.55;;;0.10;;
22449;SDS011;11392;57.390;-2.468;2022-10-15T14:11:17;0.32;;;0.10;;
22449;SDS011;11392;57.390;-2.468;2022-10-15T14:18:58;0.45;;;0.10;;
22449;SDS011;11392;57.390;-2.468;2022-10-15T14:21:33;0.37;;;0.10;;
22449;SDS011;11392;57.390;-2.468;2022-10-15T14:24:05;0.10;;;0.10;;
22449;SDS011;11392;57.390;-2.468;2022-10-15T14:26:38;0.10;;;0.00;;
22449;SDS011;11392;57.390;-2.468;2022-10-15T14:29:05;0.20;;;0.10;;
22449;SDS011;11392;57.390;-2.468;2022-10-15T14:31:45;0.03;;;0.03;;
22449;SDS011;11392;57.390;-2.468;2022-10-15T14:37:25;0.60;;;0.10;;
22449;SDS011;11392;57.390;-2.468;2022-10-15T14:40:02;0.00;;;0.00;;
22449;SDS011;11392;57.390;-2.468;2022-10-15T14:42:37;0.00;;;0.00;;
22449;SDS011;11392;57.390;-2.468;2022-10-15T14:47:45;0.10;;;0.10;;
22449;SDS011;11392;57.390;-2.468;2022-10-15T14:50:14;1.15;;;0.00;;
22449;SDS011;11392;57.390;-2.468;2022-10-15T14:52:47;0.28;;;0.03;;
22449;SDS011;11392;57.390;-2.468;2022-10-15T14:57:49;0.05;;;0.03;;
22449;SDS011;11392;57.390;-2.468;2022-10-15T15:00:25;0.28;;;0.10;;
22449;SDS011;11392;57.390;-2.468;2022-10-15T15:03:18;0.55;;;0.20;;
22449;SDS011;11392;57.390;-2.468;2022-10-15T15:05:49;0.20;;;0.10;;
22449;SDS011;11392;57.390;-2.468;2022-10-15T15:08:21;0.32;;;0.17;;
22449;SDS011;11392;57.390;-2.468;2022-10-15T15:10:48;0.28;;;0.13;;
22449;SDS011;11392;57.390;-2.468;2022-10-15T15:13:21;0.57;;;0.30;;
22449;SDS011;11392;57.390;-2.468;2022-10-15T15:15:50;0.82;;;0.10;;
22449;SDS011;11392;57.390;-2.468;2022-10-15T15:18:18;0.32;;;0.20;;
22449;SDS011;11392;57.390;-2.468;2022-10-15T15:20:46;0.43;;;0.20;;
22449;SDS011;11392;57.390;-2.468;2022-10-15T15:23:21;0.80;;;0.40;;
22449;SDS011;11392;57.390;-2.468;2022-10-15T15:25:50;0.60;;;0.17;;
22449;SDS011;11392;57.390;-2.468;2022-10-15T15:28:19;1.55;;;0.22;;
22449;SDS011;11392;57.390;-2.468;2022-10-15T15:31:34;1.42;;;0.47;;
22449;SDS011;11392;57.390;-2.468;2022-10-15T15:33:40;0.80;;;0.40;;
22449;SDS011;11392;57.390;-2.468;2022-10-15T15:36:13;0.65;;;0.35;;
22449;SDS011;11392;57.390;-2.468;2022-10-15T15:38:48;0.47;;;0.25;;
22449;SDS011;11392;57.390;-2.468;2022-10-15T15:41:19;0.73;;;0.30;;
22449;SDS011;11392;57.390;-2.468;2022-10-15T15:43:47;0.55;;;0.30;;
22449;SDS011;11392;57.390;-2.468;2022-10-15T15:46:15;2.47;;;0.40;;
22449;SDS011;11392;57.390;-2.468;2022-10-15T15:48:42;0.35;;;0.35;;
22449;SDS011;11392;57.390;-2.468;2022-10-15T15:51:26;0.32;;;0.30;;
22449;SDS011;11392;57.390;-2.468;2022-10-15T15:53:55;1.10;;;0.50;;
22449;SDS011;11392;57.390;-2.468;2022-10-15T15:56:23;0.32;;;0.32;;
22449;SDS011;11392;57.390;-2.468;2022-10-15T15:58:50;1.27;;;0.20;;
22449;SDS011;11392;57.390;-2.468;2022-10-15T16:01:18;0.75;;;0.30;;
22449;SDS011;11392;57.390;-2.468;2022-10-15T16:03:45;0.40;;;0.40;;
22449;SDS011;11392;57.390;-2.468;2022-10-15T16:06:12;0.73;;;0.30;;
22449;SDS011;11392;57.390;-2.468;2022-10-15T16:08:39;2.00;;;0.30;;
22449;SDS011;11392;57.390;-2.468;2022-10-15T16:11:06;0.95;;;0.50;;
22449;SDS011;11392;57.390;-2.468;2022-10-15T16:13:33;1.23;;;0.40;;
22449;SDS011;11392;57.390;-2.468;2022-10-15T16:16:00;0.37;;;0.35;;
22449;SDS011;11392;57.390;-2.468;2022-10-15T16:18:27;0.65;;;0.35;;
22449;SDS011;11392;57.390;-2.468;2022-10-15T16:20:54;0.88;;;0.37;;
22449;SDS011;11392;57.390;-2.468;2022-10-15T16:23:21;0.60;;;0.30;;
22449;SDS011;11392;57.390;-2.468;2022-10-15T16:25:48;3.12;;;0.50;;
22449;SDS011;11392;57.390;-2.468;2022-10-15T16:28:15;0.47;;;0.45;;
22449;SDS011;11392;57.390;-2.468;2022-10-15T16:30:42;3.83;;;0.50;;
22449;SDS011;11392;57.390;-2.468;2022-10-15T16:33:09;0.65;;;0.62;;
22449;SDS011;11392;57.390;-2.468;2022-10-15T16:35:36;2.22;;;0.80;;
22449;SDS011;11392;57.390;-2.468;2022-10-15T16:38:03;1.83;;;0.60;;
22449;SDS011;11392;57.390;-2.468;2022-10-15T16:40:30;0.85;;;0.50;;
22449;SDS011;11392;57.390;-2.468;2022-10-15T16:42:57;1.87;;;0.90;;
22449;SDS011;11392;57.390;-2.468;2022-10-15T16:45:24;1.23;;;0.60;;
22449;SDS011;11392;57.390;-2.468;2022-10-15T16:47:51;1.00;;;0.77;;
22449;SDS011;11392;57.390;-2.468;2022-10-15T16:50:18;1.23;;;0.60;;
22449;SDS011;11392;57.390;-2.468;2022-10-15T16:52:45;1.02;;;0.55;;
22449;SDS011;11392;57.390;-2.468;2022-10-15T16:55:12;1.35;;;0.50;;
22449;SDS011;11392;57.390;-2.468;2022-10-15T16:57:41;0.65;;;0.47;;
22449;SDS011;11392;57.390;-2.468;2022-10-15T17:00:09;0.47;;;0.40;;
22449;SDS011;11392;57.390;-2.468;2022-10-15T17:02:37;2.78;;;0.60;;
22449;SDS011;11392;57.390;-2.468;2022-10-15T17:05:04;1.15;;;0.77;;
22449;SDS011;11392;57.390;-2.468;2022-10-15T17:07:32;3.22;;;1.08;;
22449;SDS011;11392;57.390;-2.468;2022-10-15T17:09:59;1.15;;;0.62;;
22449;SDS011;11392;57.390;-2.468;2022-10-15T17:12:26;0.43;;;0.40;;
22449;SDS011;11392;57.390;-2.468;2022-10-15T17:14:53;1.92;;;0.57;;
22449;SDS011;11392;57.390;-2.468;2022-10-15T17:17:20;1.58;;;0.60;;
22449;SDS011;11392;57.390;-2.468;2022-10-15T17:19:47;0.95;;;0.60;;